sensor_id;sensor_type;location;lat;lon;timestamp;P1;durP1;ratioP1;P2;durP2;ratioP2
30617;SDS011;17384;51.214;9.202;2022-12-07T00:01:40;25.88;;;13.35;;
30617;SDS011;17384;51.214;9.202;2022-12-07T00:04:07;23.83;;;12.55;;
30617;SDS011;17384;51.214;9.202;2022-12-07T00:06:36;23.02;;;12.85;;
30617;SDS011;17384;51.214;9.202;2022-12-07T00:09:04;27.25;;;13.55;;
30617;SDS011;17384;51.214;9.202;2022-12-07T00:11:31;33.35;;;14.85;;
30617;SDS011;17384;51.214;9.202;2022-12-07T00:13:58;27.40;;;14.02;;
30617;SDS011;17384;51.214;9.202;2022-12-07T00:16:26;28.30;;;14.30;;
30617;SDS011;17384;51.214;9.202;2022-12-07T00:18:54;33.85;;;17.27;;
30617;SDS011;17384;51.214;9.202;2022-12-07T00:21:30;34.50;;;17.30;;
30617;SDS011;17384;51.214;9.202;2022-12-07T00:23:58;34.10;;;17.50;;
30617;SDS011;17384;51.214;9.202;2022-12-07T00:26:25;34.30;;;17.88;;
30617;SDS011;17384;51.214;9.202;2022-12-07T00:28:56;32.08;;;16.42;;
30617;SDS011;17384;51.214;9.202;2022-12-07T00:31:25;37.35;;;18.40;;
30617;SDS011;17384;51.214;9.202;2022-12-07T00:33:52;34.00;;;16.98;;
30617;SDS011;17384;51.214;9.202;2022-12-07T00:36:19;31.27;;;16.38;;
30617;SDS011;17384;51.214;9.202;2022-12-07T00:38:46;35.08;;;16.90;;
30617;SDS011;17384;51.214;9.202;2022-12-07T00:41:12;33.58;;;16.65;;
30617;SDS011;17384;51.214;9.202;2022-12-07T00:43:40;30.63;;;16.20;;
30617;SDS011;17384;51.214;9.202;2022-12-07T00:46:06;33.80;;;16.88;;
30617;SDS011;17384;51.214;9.202;2022-12-07T00:48:32;36.13;;;18.20;;
30617;SDS011;17384;51.214;9.202;2022-12-07T00:50:57;35.45;;;17.42;;
30617;SDS011;17384;51.214;9.202;2022-12-07T00:53:23;35.03;;;17.50;;
30617;SDS011;17384;51.214;9.202;2022-12-07T00:55:49;39.58;;;17.13;;
30617;SDS011;17384;51.214;9.202;2022-12-07T00:58:15;33.63;;;16.65;;
30617;SDS011;17384;51.214;9.202;2022-12-07T01:00:42;32.47;;;15.77;;
30617;SDS011;17384;51.214;9.202;2022-12-07T01:03:08;33.85;;;15.80;;
30617;SDS011;17384;51.214;9.202;2022-12-07T01:05:35;31.70;;;16.33;;
30617;SDS011;17384;51.214;9.202;2022-12-07T01:08:01;30.42;;;16.10;;
30617;SDS011;17384;51.214;9.202;2022-12-07T01:10:27;32.13;;;16.02;;
30617;SDS011;17384;51.214;9.202;2022-12-07T01:12:53;30.90;;;15.38;;
30617;SDS011;17384;51.214;9.202;2022-12-07T01:15:19;30.83;;;16.33;;
30617;SDS011;17384;51.214;9.202;2022-12-07T01:17:44;36.00;;;18.30;;
30617;SDS011;17384;51.214;9.202;2022-12-07T01:20:10;33.40;;;17.05;;
30617;SDS011;17384;51.214;9.202;2022-12-07T01:22:39;31.42;;;15.40;;
30617;SDS011;17384;51.214;9.202;2022-12-07T01:25:06;31.65;;;16.60;;
30617;SDS011;17384;51.214;9.202;2022-12-07T01:27:33;39.38;;;18.40;;
30617;SDS011;17384;51.214;9.202;2022-12-07T01:30:00;31.88;;;16.25;;
30617;SDS011;17384;51.214;9.202;2022-12-07T01:32:27;31.83;;;16.48;;
30617;SDS011;17384;51.214;9.202;2022-12-07T01:34:53;36.53;;;17.23;;
30617;SDS011;17384;51.214;9.202;2022-12-07T01:37:19;32.45;;;17.00;;
30617;SDS011;17384;51.214;9.202;2022-12-07T01:39:44;37.20;;;18.35;;
30617;SDS011;17384;51.214;9.202;2022-12-07T01:42:13;29.35;;;15.50;;
30617;SDS011;17384;51.214;9.202;2022-12-07T01:47:42;31.27;;;15.55;;
30617;SDS011;17384;51.214;9.202;2022-12-07T01:50:11;25.90;;;14.10;;
30617;SDS011;17384;51.214;9.202;2022-12-07T01:52:36;28.60;;;14.93;;
30617;SDS011;17384;51.214;9.202;2022-12-07T01:55:06;29.13;;;14.60;;
30617;SDS011;17384;51.214;9.202;2022-12-07T01:57:39;27.40;;;14.17;;
30617;SDS011;17384;51.214;9.202;2022-12-07T02:00:07;25.40;;;12.00;;
30617;SDS011;17384;51.214;9.202;2022-12-07T02:02:35;23.67;;;13.18;;
30617;SDS011;17384;51.214;9.202;2022-12-07T02:05:04;24.58;;;13.40;;
30617;SDS011;17384;51.214;9.202;2022-12-07T02:07:30;22.15;;;12.48;;
30617;SDS011;17384;51.214;9.202;2022-12-07T02:10:11;23.05;;;13.30;;
30617;SDS011;17384;51.214;9.202;2022-12-07T02:12:46;23.20;;;12.07;;
30617;SDS011;17384;51.214;9.202;2022-12-07T02:15:15;23.15;;;12.85;;
30617;SDS011;17384;51.214;9.202;2022-12-07T02:26:11;24.70;;;13.70;;
30617;SDS011;17384;51.214;9.202;2022-12-07T02:31:39;22.38;;;13.23;;
30617;SDS011;17384;51.214;9.202;2022-12-07T02:34:39;25.02;;;12.82;;
30617;SDS011;17384;51.214;9.202;2022-12-07T02:37:14;23.58;;;13.35;;
30617;SDS011;17384;51.214;9.202;2022-12-07T02:40:11;23.55;;;13.27;;
30617;SDS011;17384;51.214;9.202;2022-12-07T02:42:42;22.42;;;12.27;;
30617;SDS011;17384;51.214;9.202;2022-12-07T02:45:13;26.30;;;13.98;;
30617;SDS011;17384;51.214;9.202;2022-12-07T02:47:40;22.58;;;13.50;;
30617;SDS011;17384;51.214;9.202;2022-12-07T02:50:08;27.90;;;14.00;;
30617;SDS011;17384;51.214;9.202;2022-12-07T02:52:34;25.30;;;14.00;;
30617;SDS011;17384;51.214;9.202;2022-12-07T02:55:00;26.27;;;13.65;;
30617;SDS011;17384;51.214;9.202;2022-12-07T02:57:42;22.50;;;12.80;;
30617;SDS011;17384;51.214;9.202;2022-12-07T03:00:19;24.70;;;14.00;;
30617;SDS011;17384;51.214;9.202;2022-12-07T03:02:58;20.27;;;11.98;;
30617;SDS011;17384;51.214;9.202;2022-12-07T03:08:15;27.60;;;13.85;;
30617;SDS011;17384;51.214;9.202;2022-12-07T03:10:59;25.80;;;14.05;;
30617;SDS011;17384;51.214;9.202;2022-12-07T03:16:30;25.73;;;14.50;;
30617;SDS011;17384;51.214;9.202;2022-12-07T03:19:13;21.33;;;12.73;;
30617;SDS011;17384;51.214;9.202;2022-12-07T03:21:43;25.23;;;14.38;;
30617;SDS011;17384;51.214;9.202;2022-12-07T03:24:15;24.10;;;13.45;;
30617;SDS011;17384;51.214;9.202;2022-12-07T03:29:18;24.85;;;12.25;;
30617;SDS011;17384;51.214;9.202;2022-12-07T03:31:51;23.65;;;13.13;;
30617;SDS011;17384;51.214;9.202;2022-12-07T03:34:31;20.73;;;12.27;;
30617;SDS011;17384;51.214;9.202;2022-12-07T03:37:09;18.40;;;11.40;;
30617;SDS011;17384;51.214;9.202;2022-12-07T03:39:54;19.50;;;11.07;;
30617;SDS011;17384;51.214;9.202;2022-12-07T03:42:26;16.02;;;9.88;;
30617;SDS011;17384;51.214;9.202;2022-12-07T03:44:51;17.13;;;10.50;;
30617;SDS011;17384;51.214;9.202;2022-12-07T03:49:50;14.30;;;8.80;;
30617;SDS011;17384;51.214;9.202;2022-12-07T03:57:22;14.43;;;9.32;;
30617;SDS011;17384;51.214;9.202;2022-12-07T03:59:49;17.50;;;8.80;;
30617;SDS011;17384;51.214;9.202;2022-12-07T04:02:16;17.15;;;10.13;;
30617;SDS011;17384;51.214;9.202;2022-12-07T04:04:42;17.13;;;9.80;;
30617;SDS011;17384;51.214;9.202;2022-12-07T04:07:08;20.15;;;10.52;;
30617;SDS011;17384;51.214;9.202;2022-12-07T04:09:34;18.10;;;10.65;;
30617;SDS011;17384;51.214;9.202;2022-12-07T04:11:59;19.50;;;11.00;;
30617;SDS011;17384;51.214;9.202;2022-12-07T04:14:25;17.27;;;10.38;;
30617;SDS011;17384;51.214;9.202;2022-12-07T04:16:51;18.05;;;10.75;;
30617;SDS011;17384;51.214;9.202;2022-12-07T04:19:19;15.95;;;10.52;;
30617;SDS011;17384;51.214;9.202;2022-12-07T04:21:46;19.05;;;11.27;;
30617;SDS011;17384;51.214;9.202;2022-12-07T04:24:13;26.70;;;11.48;;
30617;SDS011;17384;51.214;9.202;2022-12-07T04:26:40;15.48;;;9.73;;
30617;SDS011;17384;51.214;9.202;2022-12-07T04:29:06;18.00;;;9.85;;
30617;SDS011;17384;51.214;9.202;2022-12-07T04:31:32;16.80;;;10.40;;
30617;SDS011;17384;51.214;9.202;2022-12-07T04:33:57;18.63;;;10.02;;
30617;SDS011;17384;51.214;9.202;2022-12-07T04:36:23;14.48;;;8.07;;
30617;SDS011;17384;51.214;9.202;2022-12-07T04:38:48;14.95;;;8.20;;
30617;SDS011;17384;51.214;9.202;2022-12-07T04:41:14;11.25;;;6.93;;
30617;SDS011;17384;51.214;9.202;2022-12-07T04:43:39;10.45;;;7.00;;
30617;SDS011;17384;51.214;9.202;2022-12-07T04:46:04;13.73;;;7.68;;
30617;SDS011;17384;51.214;9.202;2022-12-07T04:48:30;12.32;;;7.07;;
30617;SDS011;17384;51.214;9.202;2022-12-07T04:50:56;17.70;;;10.90;;
30617;SDS011;17384;51.214;9.202;2022-12-07T04:53:21;14.57;;;8.27;;
30617;SDS011;17384;51.214;9.202;2022-12-07T04:55:47;13.48;;;8.57;;
30617;SDS011;17384;51.214;9.202;2022-12-07T04:58:13;14.73;;;8.70;;
30617;SDS011;17384;51.214;9.202;2022-12-07T05:00:39;13.43;;;7.80;;
30617;SDS011;17384;51.214;9.202;2022-12-07T05:03:04;12.65;;;8.15;;
30617;SDS011;17384;51.214;9.202;2022-12-07T05:05:30;13.25;;;8.32;;
30617;SDS011;17384;51.214;9.202;2022-12-07T05:07:55;16.63;;;9.48;;
30617;SDS011;17384;51.214;9.202;2022-12-07T05:10:21;17.73;;;9.60;;
30617;SDS011;17384;51.214;9.202;2022-12-07T05:12:46;19.77;;;8.55;;
30617;SDS011;17384;51.214;9.202;2022-12-07T05:15:12;15.75;;;9.85;;
30617;SDS011;17384;51.214;9.202;2022-12-07T05:17:38;17.55;;;9.70;;
30617;SDS011;17384;51.214;9.202;2022-12-07T05:20:04;23.92;;;10.63;;
30617;SDS011;17384;51.214;9.202;2022-12-07T05:22:30;19.40;;;9.77;;
30617;SDS011;17384;51.214;9.202;2022-12-07T05:24:56;24.17;;;11.00;;
30617;SDS011;17384;51.214;9.202;2022-12-07T05:27:21;30.45;;;13.23;;
30617;SDS011;17384;51.214;9.202;2022-12-07T05:29:47;19.88;;;10.20;;
30617;SDS011;17384;51.214;9.202;2022-12-07T05:32:14;22.70;;;10.70;;
30617;SDS011;17384;51.214;9.202;2022-12-07T05:34:39;18.35;;;9.45;;
30617;SDS011;17384;51.214;9.202;2022-12-07T05:37:05;19.60;;;9.85;;
30617;SDS011;17384;51.214;9.202;2022-12-07T05:39:30;21.50;;;11.82;;
30617;SDS011;17384;51.214;9.202;2022-12-07T05:41:56;18.50;;;10.90;;
30617;SDS011;17384;51.214;9.202;2022-12-07T05:44:37;19.27;;;10.07;;
30617;SDS011;17384;51.214;9.202;2022-12-07T05:47:03;19.00;;;10.30;;
30617;SDS011;17384;51.214;9.202;2022-12-07T05:49:28;18.00;;;8.93;;
30617;SDS011;17384;51.214;9.202;2022-12-07T05:51:54;19.00;;;9.50;;
30617;SDS011;17384;51.214;9.202;2022-12-07T05:54:19;17.20;;;9.43;;
30617;SDS011;17384;51.214;9.202;2022-12-07T05:56:45;18.88;;;9.45;;
30617;SDS011;17384;51.214;9.202;2022-12-07T05:59:10;21.92;;;11.68;;
30617;SDS011;17384;51.214;9.202;2022-12-07T06:01:51;20.02;;;11.13;;
30617;SDS011;17384;51.214;9.202;2022-12-07T06:04:25;23.05;;;11.55;;
30617;SDS011;17384;51.214;9.202;2022-12-07T06:06:52;23.40;;;11.85;;
30617;SDS011;17384;51.214;9.202;2022-12-07T06:09:19;21.23;;;11.63;;
30617;SDS011;17384;51.214;9.202;2022-12-07T06:11:45;17.65;;;9.88;;
30617;SDS011;17384;51.214;9.202;2022-12-07T06:14:29;16.50;;;9.82;;
30617;SDS011;17384;51.214;9.202;2022-12-07T06:16:55;16.33;;;9.90;;
30617;SDS011;17384;51.214;9.202;2022-12-07T06:19:20;19.33;;;9.35;;
30617;SDS011;17384;51.214;9.202;2022-12-07T06:21:46;17.45;;;9.45;;
30617;SDS011;17384;51.214;9.202;2022-12-07T06:24:12;17.27;;;8.93;;
30617;SDS011;17384;51.214;9.202;2022-12-07T06:26:38;24.83;;;12.98;;
30617;SDS011;17384;51.214;9.202;2022-12-07T06:29:04;23.27;;;12.27;;
30617;SDS011;17384;51.214;9.202;2022-12-07T06:31:30;24.23;;;10.98;;
30617;SDS011;17384;51.214;9.202;2022-12-07T06:33:57;21.38;;;9.77;;
30617;SDS011;17384;51.214;9.202;2022-12-07T06:36:23;17.15;;;8.40;;
30617;SDS011;17384;51.214;9.202;2022-12-07T06:38:49;13.23;;;7.65;;
30617;SDS011;17384;51.214;9.202;2022-12-07T06:41:14;13.88;;;8.50;;
30617;SDS011;17384;51.214;9.202;2022-12-07T06:43:40;23.95;;;8.48;;
30617;SDS011;17384;51.214;9.202;2022-12-07T06:46:05;16.13;;;7.93;;
30617;SDS011;17384;51.214;9.202;2022-12-07T06:48:31;19.80;;;8.52;;
30617;SDS011;17384;51.214;9.202;2022-12-07T06:50:56;17.73;;;8.82;;
30617;SDS011;17384;51.214;9.202;2022-12-07T06:53:22;21.13;;;8.63;;
30617;SDS011;17384;51.214;9.202;2022-12-07T06:55:47;17.42;;;7.93;;
30617;SDS011;17384;51.214;9.202;2022-12-07T06:58:13;19.17;;;7.72;;
30617;SDS011;17384;51.214;9.202;2022-12-07T07:00:38;18.33;;;7.38;;
30617;SDS011;17384;51.214;9.202;2022-12-07T07:03:04;20.15;;;10.32;;
30617;SDS011;17384;51.214;9.202;2022-12-07T07:05:29;12.77;;;6.95;;
30617;SDS011;17384;51.214;9.202;2022-12-07T07:07:55;10.88;;;6.45;;
30617;SDS011;17384;51.214;9.202;2022-12-07T07:10:20;12.32;;;7.03;;
30617;SDS011;17384;51.214;9.202;2022-12-07T07:12:46;20.35;;;8.13;;
30617;SDS011;17384;51.214;9.202;2022-12-07T07:15:11;13.90;;;6.70;;
30617;SDS011;17384;51.214;9.202;2022-12-07T07:17:37;21.85;;;8.57;;
30617;SDS011;17384;51.214;9.202;2022-12-07T07:20:03;18.65;;;9.18;;
30617;SDS011;17384;51.214;9.202;2022-12-07T07:22:29;17.42;;;7.43;;
30617;SDS011;17384;51.214;9.202;2022-12-07T07:24:54;19.83;;;9.27;;
30617;SDS011;17384;51.214;9.202;2022-12-07T07:27:19;16.35;;;7.25;;
30617;SDS011;17384;51.214;9.202;2022-12-07T07:29:45;16.50;;;8.50;;
30617;SDS011;17384;51.214;9.202;2022-12-07T07:32:10;20.15;;;9.15;;
30617;SDS011;17384;51.214;9.202;2022-12-07T07:34:37;26.23;;;10.93;;
30617;SDS011;17384;51.214;9.202;2022-12-07T07:37:02;22.63;;;9.00;;
30617;SDS011;17384;51.214;9.202;2022-12-07T07:39:28;12.27;;;6.95;;
30617;SDS011;17384;51.214;9.202;2022-12-07T07:41:53;18.33;;;10.23;;
30617;SDS011;17384;51.214;9.202;2022-12-07T07:44:20;23.75;;;10.18;;
30617;SDS011;17384;51.214;9.202;2022-12-07T07:46:45;17.92;;;9.80;;
30617;SDS011;17384;51.214;9.202;2022-12-07T07:49:11;17.80;;;9.90;;
30617;SDS011;17384;51.214;9.202;2022-12-07T07:51:37;22.88;;;10.40;;
30617;SDS011;17384;51.214;9.202;2022-12-07T07:54:02;22.40;;;9.20;;
30617;SDS011;17384;51.214;9.202;2022-12-07T07:56:28;14.35;;;7.60;;
30617;SDS011;17384;51.214;9.202;2022-12-07T07:58:54;17.08;;;7.53;;
30617;SDS011;17384;51.214;9.202;2022-12-07T08:01:19;26.42;;;8.02;;
30617;SDS011;17384;51.214;9.202;2022-12-07T08:03:48;16.08;;;7.78;;
30617;SDS011;17384;51.214;9.202;2022-12-07T08:06:14;18.00;;;8.15;;
30617;SDS011;17384;51.214;9.202;2022-12-07T08:08:40;15.50;;;7.40;;
30617;SDS011;17384;51.214;9.202;2022-12-07T08:11:07;13.80;;;7.85;;
30617;SDS011;17384;51.214;9.202;2022-12-07T08:13:33;16.63;;;7.50;;
30617;SDS011;17384;51.214;9.202;2022-12-07T08:15:59;13.07;;;6.43;;
30617;SDS011;17384;51.214;9.202;2022-12-07T08:18:29;15.00;;;6.90;;
30617;SDS011;17384;51.214;9.202;2022-12-07T08:21:00;12.75;;;6.45;;
30617;SDS011;17384;51.214;9.202;2022-12-07T08:23:26;25.13;;;7.75;;
30617;SDS011;17384;51.214;9.202;2022-12-07T08:25:52;12.00;;;5.95;;
30617;SDS011;17384;51.214;9.202;2022-12-07T08:28:17;9.43;;;5.80;;
30617;SDS011;17384;51.214;9.202;2022-12-07T08:30:42;11.23;;;6.28;;
30617;SDS011;17384;51.214;9.202;2022-12-07T08:33:09;20.45;;;6.35;;
30617;SDS011;17384;51.214;9.202;2022-12-07T08:35:38;14.50;;;6.28;;
30617;SDS011;17384;51.214;9.202;2022-12-07T08:38:07;11.18;;;4.93;;
30617;SDS011;17384;51.214;9.202;2022-12-07T08:40:33;10.95;;;4.63;;
30617;SDS011;17384;51.214;9.202;2022-12-07T08:42:58;10.57;;;3.90;;
30617;SDS011;17384;51.214;9.202;2022-12-07T08:45:24;15.52;;;4.80;;
30617;SDS011;17384;51.214;9.202;2022-12-07T08:47:57;9.52;;;4.70;;
30617;SDS011;17384;51.214;9.202;2022-12-07T08:50:29;13.45;;;5.35;;
30617;SDS011;17384;51.214;9.202;2022-12-07T08:52:56;8.02;;;4.35;;
30617;SDS011;17384;51.214;9.202;2022-12-07T08:55:23;7.57;;;4.03;;
30617;SDS011;17384;51.214;9.202;2022-12-07T08:57:50;9.52;;;3.40;;
30617;SDS011;17384;51.214;9.202;2022-12-07T09:00:16;5.10;;;3.53;;
30617;SDS011;17384;51.214;9.202;2022-12-07T09:02:42;9.30;;;4.22;;
30617;SDS011;17384;51.214;9.202;2022-12-07T09:05:09;6.55;;;3.83;;
30617;SDS011;17384;51.214;9.202;2022-12-07T09:07:35;10.00;;;4.45;;
30617;SDS011;17384;51.214;9.202;2022-12-07T09:10:01;8.75;;;3.25;;
30617;SDS011;17384;51.214;9.202;2022-12-07T09:12:26;10.60;;;3.38;;
30617;SDS011;17384;51.214;9.202;2022-12-07T09:14:52;5.50;;;2.97;;
30617;SDS011;17384;51.214;9.202;2022-12-07T09:17:17;9.30;;;3.17;;
30617;SDS011;17384;51.214;9.202;2022-12-07T09:19:43;9.07;;;3.40;;
30617;SDS011;17384;51.214;9.202;2022-12-07T09:22:08;8.40;;;3.55;;
30617;SDS011;17384;51.214;9.202;2022-12-07T09:24:34;9.90;;;3.67;;
30617;SDS011;17384;51.214;9.202;2022-12-07T09:27:00;11.43;;;3.92;;
30617;SDS011;17384;51.214;9.202;2022-12-07T09:29:25;6.35;;;3.85;;
30617;SDS011;17384;51.214;9.202;2022-12-07T09:31:51;5.82;;;3.60;;
30617;SDS011;17384;51.214;9.202;2022-12-07T09:34:17;8.95;;;3.80;;
30617;SDS011;17384;51.214;9.202;2022-12-07T09:36:43;12.32;;;4.43;;
30617;SDS011;17384;51.214;9.202;2022-12-07T09:39:09;12.65;;;5.43;;
30617;SDS011;17384;51.214;9.202;2022-12-07T09:41:37;14.98;;;5.85;;
30617;SDS011;17384;51.214;9.202;2022-12-07T09:44:05;20.42;;;6.10;;
30617;SDS011;17384;51.214;9.202;2022-12-07T09:46:36;10.63;;;2.80;;
30617;SDS011;17384;51.214;9.202;2022-12-07T09:49:03;8.02;;;2.70;;
30617;SDS011;17384;51.214;9.202;2022-12-07T09:51:30;9.20;;;3.67;;
30617;SDS011;17384;51.214;9.202;2022-12-07T09:53:56;14.73;;;5.65;;
30617;SDS011;17384;51.214;9.202;2022-12-07T09:56:24;16.13;;;5.20;;
30617;SDS011;17384;51.214;9.202;2022-12-07T09:58:51;9.02;;;4.47;;
30617;SDS011;17384;51.214;9.202;2022-12-07T10:01:22;16.87;;;5.57;;
30617;SDS011;17384;51.214;9.202;2022-12-07T10:03:52;19.83;;;6.45;;
30617;SDS011;17384;51.214;9.202;2022-12-07T10:06:19;11.95;;;4.38;;
30617;SDS011;17384;51.214;9.202;2022-12-07T10:08:45;14.73;;;5.28;;
30617;SDS011;17384;51.214;9.202;2022-12-07T10:11:11;10.80;;;4.13;;
30617;SDS011;17384;51.214;9.202;2022-12-07T10:13:43;14.95;;;3.88;;
30617;SDS011;17384;51.214;9.202;2022-12-07T10:18:49;3.15;;;2.13;;
30617;SDS011;17384;51.214;9.202;2022-12-07T10:21:16;4.18;;;2.13;;
30617;SDS011;17384;51.214;9.202;2022-12-07T10:24:04;4.50;;;1.75;;
30617;SDS011;17384;51.214;9.202;2022-12-07T10:26:51;4.57;;;1.93;;
30617;SDS011;17384;51.214;9.202;2022-12-07T10:29:24;4.53;;;1.73;;
30617;SDS011;17384;51.214;9.202;2022-12-07T10:34:32;7.28;;;2.58;;
30617;SDS011;17384;51.214;9.202;2022-12-07T10:39:45;10.48;;;2.63;;
30617;SDS011;17384;51.214;9.202;2022-12-07T10:42:19;15.80;;;2.90;;
30617;SDS011;17384;51.214;9.202;2022-12-07T10:44:45;6.50;;;2.33;;
30617;SDS011;17384;51.214;9.202;2022-12-07T10:49:48;9.15;;;2.80;;
30617;SDS011;17384;51.214;9.202;2022-12-07T11:01:54;8.65;;;2.08;;
30617;SDS011;17384;51.214;9.202;2022-12-07T11:10:05;4.65;;;2.80;;
30617;SDS011;17384;51.214;9.202;2022-12-07T11:34:36;4.03;;;2.50;;
30617;SDS011;17384;51.214;9.202;2022-12-07T11:37:13;4.88;;;2.40;;
30617;SDS011;17384;51.214;9.202;2022-12-07T11:39:47;6.35;;;2.28;;
30617;SDS011;17384;51.214;9.202;2022-12-07T11:45:24;7.30;;;2.55;;
30617;SDS011;17384;51.214;9.202;2022-12-07T11:50:41;11.25;;;2.60;;
30617;SDS011;17384;51.214;9.202;2022-12-07T12:01:23;6.85;;;3.20;;
30617;SDS011;17384;51.214;9.202;2022-12-07T12:07:07;10.50;;;3.10;;
30617;SDS011;17384;51.214;9.202;2022-12-07T12:09:40;5.63;;;2.20;;
30617;SDS011;17384;51.214;9.202;2022-12-07T12:20:26;6.55;;;2.75;;
30617;SDS011;17384;51.214;9.202;2022-12-07T12:25:47;4.63;;;3.10;;
30617;SDS011;17384;51.214;9.202;2022-12-07T12:31:15;5.03;;;2.43;;
30617;SDS011;17384;51.214;9.202;2022-12-07T12:33:56;9.20;;;3.08;;
30617;SDS011;17384;51.214;9.202;2022-12-07T12:36:28;15.55;;;3.22;;
30617;SDS011;17384;51.214;9.202;2022-12-07T12:39:16;5.82;;;2.55;;
30617;SDS011;17384;51.214;9.202;2022-12-07T12:51:48;4.80;;;2.25;;
30617;SDS011;17384;51.214;9.202;2022-12-07T13:28:52;11.10;;;2.30;;
30617;SDS011;17384;51.214;9.202;2022-12-07T13:31:57;9.48;;;2.67;;
30617;SDS011;17384;51.214;9.202;2022-12-07T13:34:39;6.60;;;2.33;;
30617;SDS011;17384;51.214;9.202;2022-12-07T13:37:10;7.80;;;2.90;;
30617;SDS011;17384;51.214;9.202;2022-12-07T13:39:47;5.30;;;2.60;;
30617;SDS011;17384;51.214;9.202;2022-12-07T13:42:24;7.35;;;2.63;;
30617;SDS011;17384;51.214;9.202;2022-12-07T13:44:52;4.20;;;2.58;;
30617;SDS011;17384;51.214;9.202;2022-12-07T13:50:30;8.27;;;3.00;;
30617;SDS011;17384;51.214;9.202;2022-12-07T13:53:00;9.43;;;3.50;;
30617;SDS011;17384;51.214;9.202;2022-12-07T13:55:27;4.85;;;2.90;;
30617;SDS011;17384;51.214;9.202;2022-12-07T13:57:54;3.28;;;2.75;;
30617;SDS011;17384;51.214;9.202;2022-12-07T14:00:25;9.63;;;3.25;;
30617;SDS011;17384;51.214;9.202;2022-12-07T14:05:37;5.10;;;3.28;;
30617;SDS011;17384;51.214;9.202;2022-12-07T14:10:36;7.35;;;3.75;;
30617;SDS011;17384;51.214;9.202;2022-12-07T14:16:04;11.50;;;4.60;;
30617;SDS011;17384;51.214;9.202;2022-12-07T14:18:47;10.32;;;3.63;;
30617;SDS011;17384;51.214;9.202;2022-12-07T14:23:38;9.65;;;3.60;;
30617;SDS011;17384;51.214;9.202;2022-12-07T14:26:11;11.43;;;3.03;;
30617;SDS011;17384;51.214;9.202;2022-12-07T14:28:41;11.25;;;3.67;;
30617;SDS011;17384;51.214;9.202;2022-12-07T14:31:18;5.88;;;2.85;;
30617;SDS011;17384;51.214;9.202;2022-12-07T14:33:46;6.45;;;2.85;;
30617;SDS011;17384;51.214;9.202;2022-12-07T14:36:12;6.90;;;3.10;;
30617;SDS011;17384;51.214;9.202;2022-12-07T14:38:38;7.85;;;3.15;;
30617;SDS011;17384;51.214;9.202;2022-12-07T14:41:06;4.65;;;2.70;;
30617;SDS011;17384;51.214;9.202;2022-12-07T14:43:58;8.98;;;3.53;;
30617;SDS011;17384;51.214;9.202;2022-12-07T14:46:24;6.15;;;3.10;;
30617;SDS011;17384;51.214;9.202;2022-12-07T14:48:49;4.93;;;3.13;;
30617;SDS011;17384;51.214;9.202;2022-12-07T14:51:15;5.88;;;3.58;;
30617;SDS011;17384;51.214;9.202;2022-12-07T14:53:48;17.92;;;9.57;;
30617;SDS011;17384;51.214;9.202;2022-12-07T14:56:15;40.42;;;20.38;;
30617;SDS011;17384;51.214;9.202;2022-12-07T14:58:41;50.67;;;24.58;;
30617;SDS011;17384;51.214;9.202;2022-12-07T15:01:06;40.65;;;20.15;;
30617;SDS011;17384;51.214;9.202;2022-12-07T15:03:35;24.35;;;12.23;;
30617;SDS011;17384;51.214;9.202;2022-12-07T15:06:03;10.63;;;6.10;;
30617;SDS011;17384;51.214;9.202;2022-12-07T15:08:30;9.32;;;4.38;;
30617;SDS011;17384;51.214;9.202;2022-12-07T15:10:55;11.93;;;5.82;;
30617;SDS011;17384;51.214;9.202;2022-12-07T15:13:21;14.27;;;8.20;;
30617;SDS011;17384;51.214;9.202;2022-12-07T15:16:07;18.88;;;10.30;;
30617;SDS011;17384;51.214;9.202;2022-12-07T15:18:36;17.73;;;10.15;;
30617;SDS011;17384;51.214;9.202;2022-12-07T15:21:01;16.70;;;9.77;;
30617;SDS011;17384;51.214;9.202;2022-12-07T15:23:27;24.52;;;12.95;;
30617;SDS011;17384;51.214;9.202;2022-12-07T15:25:53;20.35;;;12.07;;
30617;SDS011;17384;51.214;9.202;2022-12-07T15:28:18;17.92;;;11.48;;
30617;SDS011;17384;51.214;9.202;2022-12-07T15:30:44;22.33;;;12.48;;
30617;SDS011;17384;51.214;9.202;2022-12-07T15:33:10;20.73;;;11.32;;
30617;SDS011;17384;51.214;9.202;2022-12-07T15:35:40;26.02;;;12.45;;
30617;SDS011;17384;51.214;9.202;2022-12-07T15:38:07;27.15;;;12.75;;
30617;SDS011;17384;51.214;9.202;2022-12-07T15:40:33;14.55;;;7.90;;
30617;SDS011;17384;51.214;9.202;2022-12-07T15:42:59;15.32;;;8.18;;
30617;SDS011;17384;51.214;9.202;2022-12-07T15:45:25;19.02;;;9.73;;
30617;SDS011;17384;51.214;9.202;2022-12-07T15:47:51;19.50;;;10.50;;
30617;SDS011;17384;51.214;9.202;2022-12-07T15:50:16;22.10;;;10.98;;
30617;SDS011;17384;51.214;9.202;2022-12-07T15:52:42;20.65;;;11.18;;
30617;SDS011;17384;51.214;9.202;2022-12-07T15:55:09;19.20;;;10.07;;
30617;SDS011;17384;51.214;9.202;2022-12-07T15:57:38;19.70;;;9.95;;
30617;SDS011;17384;51.214;9.202;2022-12-07T16:00:04;15.43;;;9.90;;
30617;SDS011;17384;51.214;9.202;2022-12-07T16:02:30;20.92;;;11.30;;
30617;SDS011;17384;51.214;9.202;2022-12-07T16:04:56;19.67;;;11.65;;
30617;SDS011;17384;51.214;9.202;2022-12-07T16:07:22;22.38;;;12.63;;
30617;SDS011;17384;51.214;9.202;2022-12-07T16:09:48;21.73;;;11.52;;
30617;SDS011;17384;51.214;9.202;2022-12-07T16:12:14;16.52;;;9.38;;
30617;SDS011;17384;51.214;9.202;2022-12-07T16:14:40;22.38;;;12.50;;
30617;SDS011;17384;51.214;9.202;2022-12-07T16:17:06;19.73;;;11.27;;
30617;SDS011;17384;51.214;9.202;2022-12-07T16:19:33;20.20;;;10.50;;
30617;SDS011;17384;51.214;9.202;2022-12-07T16:21:59;14.55;;;9.55;;
30617;SDS011;17384;51.214;9.202;2022-12-07T16:24:25;14.15;;;7.22;;
30617;SDS011;17384;51.214;9.202;2022-12-07T16:26:51;10.30;;;6.13;;
30617;SDS011;17384;51.214;9.202;2022-12-07T16:29:18;13.60;;;7.03;;
30617;SDS011;17384;51.214;9.202;2022-12-07T16:31:46;9.30;;;6.38;;
30617;SDS011;17384;51.214;9.202;2022-12-07T16:34:12;12.75;;;7.03;;
30617;SDS011;17384;51.214;9.202;2022-12-07T16:36:37;18.30;;;8.18;;
30617;SDS011;17384;51.214;9.202;2022-12-07T16:39:03;15.18;;;8.90;;
30617;SDS011;17384;51.214;9.202;2022-12-07T16:41:30;14.95;;;7.43;;
30617;SDS011;17384;51.214;9.202;2022-12-07T16:43:55;10.63;;;6.38;;
30617;SDS011;17384;51.214;9.202;2022-12-07T16:46:21;9.50;;;6.78;;
30617;SDS011;17384;51.214;9.202;2022-12-07T16:48:46;12.93;;;6.55;;
30617;SDS011;17384;51.214;9.202;2022-12-07T16:51:13;14.20;;;6.70;;
30617;SDS011;17384;51.214;9.202;2022-12-07T16:53:42;13.95;;;6.25;;
30617;SDS011;17384;51.214;9.202;2022-12-07T16:56:12;18.33;;;7.05;;
30617;SDS011;17384;51.214;9.202;2022-12-07T16:58:40;18.00;;;7.57;;
30617;SDS011;17384;51.214;9.202;2022-12-07T17:01:17;18.60;;;6.38;;
30617;SDS011;17384;51.214;9.202;2022-12-07T17:03:47;14.05;;;7.60;;
30617;SDS011;17384;51.214;9.202;2022-12-07T17:06:14;10.88;;;5.65;;
30617;SDS011;17384;51.214;9.202;2022-12-07T17:08:43;7.78;;;5.57;;
30617;SDS011;17384;51.214;9.202;2022-12-07T17:11:10;19.95;;;6.28;;
30617;SDS011;17384;51.214;9.202;2022-12-07T17:13:37;14.02;;;7.55;;
30617;SDS011;17384;51.214;9.202;2022-12-07T17:16:21;15.15;;;7.35;;
30617;SDS011;17384;51.214;9.202;2022-12-07T17:18:47;14.57;;;8.93;;
30617;SDS011;17384;51.214;9.202;2022-12-07T17:21:12;45.13;;;18.55;;
30617;SDS011;17384;51.214;9.202;2022-12-07T17:23:37;44.53;;;19.90;;
30617;SDS011;17384;51.214;9.202;2022-12-07T17:26:04;51.78;;;19.90;;